Time;durP1;ratioP1;P1;durP2;ratioP2;P2;SDS_P1;SDS_P2;PMS_P1;PMS_P2;Temp;Humidity;BMP_temperature;BMP_pressure;BME280_temperature;BME280_humidity;BME280_pressure;Samples;Min_cycle;Max_cycle;Signal;HPM_P1;HPM_P2
2021/06/10 00:00:48;;;;;;;14.23;12.45;;;;;;;13.40;78.71;98324.16;1763787;81;20953;-76
2021/06/10 00:03:16;;;;;;;;;;;;;;;13.31;81.84;98330.53;1765673;81;20880;-77
2021/06/10 00:05:42;;;;;;;18.35;12.53;;;;;;;13.29;79.45;98316.41;1763510;81;21162;-77
2021/06/10 00:08:10;;;;;;;14.25;10.82;;;;;;;13.21;79.36;98329.55;1763067;81;20998;-77
2021/06/10 00:10:39;;;;;;;14.78;10.90;;;;;;;13.16;80.89;98329.59;1763667;81;21045;-77
2021/06/10 00:13:05;;;;;;;16.45;12.85;;;;;;;13.15;79.59;98329.85;1762246;81;21347;-77
2021/06/10 00:15:32;;;;;;;15.65;11.10;;;;;;;13.10;79.91;98334.81;1733487;81;21464;-77
2021/06/10 00:17:58;;;;;;;15.95;11.22;;;;;;;13.13;80.29;98336.14;1763202;81;21062;-77
2021/06/10 00:20:27;;;;;;;17.65;11.28;;;;;;;13.11;80.75;98330.19;1763400;81;20996;-77
2021/06/10 00:22:55;;;;;;;13.18;10.18;;;;;;;13.09;79.82;98330.48;1763501;81;26288;-77
2021/06/10 00:25:25;;;;;;;15.35;10.32;;;;;;;13.09;79.59;98330.48;1763401;81;21061;-76
2021/06/10 00:27:51;;;;;;;17.98;11.60;;;;;;;13.03;80.63;98330.81;1744345;81;21044;-76
2021/06/10 00:30:17;;;;;;;13.35;11.40;;;;;;;13.02;79.95;98330.00;1763495;81;21965;-76
2021/06/10 00:32:44;;;;;;;17.15;11.10;;;;;;;13.01;79.34;98324.86;1763535;81;20981;-76
2021/06/10 00:35:12;;;;;;;14.75;12.23;;;;;;;12.94;80.55;98327.36;1763385;81;20965;-76
2021/06/10 00:37:38;;;;;;;18.00;12.00;;;;;;;12.92;79.76;98328.20;1763371;81;21021;-76
2021/06/10 00:40:06;;;;;;;14.83;11.08;;;;;;;12.78;80.99;98329.95;1758661;81;21056;-76
2021/06/10 00:42:32;;;;;;;15.78;11.30;;;;;;;12.73;79.94;98323.20;1763464;81;21347;-76
2021/06/10 00:44:58;;;;;;;14.78;11.53;;;;;;;12.69;80.15;98321.61;1763461;81;21036;-76
2021/06/10 00:47:24;;;;;;;14.90;11.18;;;;;;;12.73;79.62;98323.20;1763272;81;20875;-76
2021/06/10 00:49:50;;;;;;;13.30;10.55;;;;;;;12.71;80.47;98319.96;1763058;81;21433;-76
2021/06/10 00:52:16;;;;;;;17.32;12.53;;;;;;;12.68;80.47;98321.35;1763320;81;21504;-76
2021/06/10 00:54:42;;;;;;;14.78;10.55;;;;;;;12.62;80.38;98325.20;1763133;81;21125;-76
2021/06/10 00:57:08;;;;;;;19.27;12.15;;;;;;;12.57;81.51;98323.91;1763273;81;20870;-76
2021/06/10 00:59:35;;;;;;;14.33;11.60;;;;;;;12.50;81.50;98323.97;1763300;81;20998;-76
2021/06/10 01:02:01;;;;;;;18.70;12.78;;;;;;;12.45;80.51;98320.73;1763317;81;21046;-76
2021/06/10 01:04:27;;;;;;;12.23;9.63;;;;;;;12.40;80.31;98325.67;1763226;81;20961;-76
2021/06/10 01:07:16;;;;;;;16.60;10.35;;;;;;;12.32;80.48;98322.20;1761730;81;21809;-76
2021/06/10 01:09:50;;;;;;;16.15;11.03;;;;;;;12.25;79.92;98319.54;1751451;82;20934;-77
2021/06/10 01:12:39;;;;;;;17.48;12.28;;;;;;;12.17;79.51;98312.80;1749528;82;21387;-77
2021/06/10 01:15:09;;;;;;;15.70;12.20;;;;;;;12.08;83.09;98313.95;1751495;82;20974;-76
2021/06/10 01:17:43;;;;;;;16.87;11.57;;;;;;;12.01;81.47;98313.45;1726482;82;20942;-76
2021/06/10 01:20:18;;;;;;;14.58;11.00;;;;;;;12.01;81.28;98304.48;1751836;82;21171;-76
2021/06/10 01:23:08;;;;;;;23.47;10.72;;;;;;;11.98;81.92;98311.85;1750999;81;20939;-76
2021/06/10 01:26:10;;;;;;;12.70;10.23;;;;;;;11.96;80.30;98308.03;1751794;82;20990;-77
2021/06/10 01:28:36;;;;;;;13.60;10.15;;;;;;;11.96;80.42;98312.66;1718913;83;21433;-77
2021/06/10 01:31:09;;;;;;;12.37;9.55;;;;;;;11.90;81.76;98307.83;1719205;82;21141;-77
2021/06/10 01:33:39;;;;;;;12.43;9.90;;;;;;;11.88;80.95;98311.38;1687504;82;21407;-76
2021/06/10 01:36:13;;;;;;;13.95;10.30;;;;;;;11.85;81.08;98302.41;1728152;82;21057;-77
2021/06/10 01:38:40;;;;;;;13.10;10.30;;;;;;;11.81;81.70;98304.08;1751285;81;21034;-77
2021/06/10 01:41:06;;;;;;;12.82;10.50;;;;;;;11.82;80.54;98305.70;1751933;82;21458;-77
2021/06/10 01:43:36;;;;;;;14.78;9.90;;;;;;;11.79;79.67;98304.34;1725812;82;20947;-77
2021/06/10 01:46:02;;;;;;;13.85;9.95;;;;;;;11.72;80.80;98296.23;1751585;82;21131;-77
2021/06/10 01:48:28;;;;;;;14.35;10.40;;;;;;;11.68;80.63;98300.58;1751479;80;20997;-77
2021/06/10 01:50:56;;;;;;;12.88;9.83;;;;;;;11.63;80.13;98299.27;1751509;80;21485;-77
2021/06/10 01:53:22;;;;;;;14.83;10.03;;;;;;;11.55;81.50;98293.33;1751437;82;20983;-77
2021/06/10 01:55:48;;;;;;;11.03;9.40;;;;;;;11.57;82.04;98300.64;1751725;82;20981;-77
2021/06/10 01:58:14;;;;;;;20.45;11.22;;;;;;;11.58;81.53;98298.19;1750816;81;21407;-77
2021/06/10 02:00:41;;;;;;;15.13;8.70;;;;;;;11.56;82.04;98300.38;1751426;82;21033;-77
2021/06/10 02:03:08;;;;;;;13.80;9.20;;;;;;;11.58;82.24;98297.38;1751658;82;21408;-77
2021/06/10 02:05:37;;;;;;;13.60;9.23;;;;;;;11.52;82.40;98302.01;1751513;82;20994;-77
2021/06/10 02:08:05;;;;;;;11.75;9.10;;;;;;;11.52;82.40;98302.01;1754152;81;20953;-77
2021/06/10 02:10:31;;;;;;;14.45;9.08;;;;;;;11.54;81.72;98297.69;1734040;81;21064;-76
2021/06/10 02:12:57;;;;;;;15.15;9.45;;;;;;;11.51;80.90;98299.03;1763436;81;20894;-76
2021/06/10 02:15:23;;;;;;;12.13;9.53;;;;;;;11.27;80.73;98295.34;1763473;81;21043;-76
2021/06/10 02:17:49;;;;;;;12.30;9.13;;;;;;;11.27;80.73;98295.34;1763538;81;21001;-76
2021/06/10 02:20:17;;;;;;;14.87;10.53;;;;;;;11.21;80.81;98301.89;1763470;81;20874;-76
2021/06/10 02:22:44;;;;;;;15.43;10.43;;;;;;;11.14;81.24;98302.72;1733757;81;21157;-76
2021/06/10 02:25:11;;;;;;;22.80;10.05;;;;;;;11.12;80.75;98304.36;1763409;81;21049;-76
2021/06/10 02:27:37;;;;;;;16.48;9.98;;;;;;;11.07;80.37;98305.72;1763370;81;21431;-76
2021/06/10 02:30:05;;;;;;;14.33;8.88;;;;;;;10.94;81.85;98300.34;1737963;81;21476;-76
2021/06/10 02:32:31;;;;;;;13.53;9.55;;;;;;;10.98;80.63;98308.19;1764084;81;21724;-76
2021/06/10 02:34:57;;;;;;;14.00;9.50;;;;;;;10.96;80.93;98309.55;1763322;81;21029;-77
2021/06/10 02:37:24;;;;;;;12.20;9.13;;;;;;;10.89;81.22;98304.95;1763380;81;20881;-76
2021/06/10 02:39:51;;;;;;;11.83;9.45;;;;;;;10.91;81.69;98323.92;1733337;81;20993;-76
2021/06/10 02:42:17;;;;;;;12.35;9.55;;;;;;;10.91;81.69;98323.92;1709025;81;21061;-76
2021/06/10 02:44:46;;;;;;;11.18;9.05;;;;;;;10.89;81.68;98320.67;1758301;81;20972;-76
2021/06/10 02:47:12;;;;;;;12.03;9.53;;;;;;;10.94;80.98;98311.73;1763543;81;21236;-77
2021/06/10 02:49:41;;;;;;;13.08;9.28;;;;;;;10.87;81.00;98317.44;1763171;81;20929;-77
2021/06/10 02:52:07;;;;;;;15.00;9.45;;;;;;;10.80;81.51;98328.29;1743970;81;21005;-77
2021/06/10 02:54:35;;;;;;;12.93;9.35;;;;;;;10.74;81.83;98328.83;1763217;81;21040;-77
2021/06/10 02:57:02;;;;;;;15.53;10.80;;;;;;;10.74;81.83;98328.83;1763499;81;21010;-77
2021/06/10 02:59:29;;;;;;;15.13;10.20;;;;;;;10.69;83.47;98330.20;1763368;81;21112;-77
2021/06/10 03:01:55;;;;;;;10.00;8.45;;;;;;;10.69;82.98;98324.24;1763361;81;21434;-77
2021/06/10 03:04:21;;;;;;;15.03;10.28;;;;;;;10.73;82.87;98326.66;1706222;81;21056;-77
2021/06/10 03:06:47;;;;;;;15.88;9.23;;;;;;;10.76;82.54;98328.00;1763654;81;21362;-77
2021/06/10 03:09:14;;;;;;;12.95;9.33;;;;;;;10.76;81.98;98333.42;1752970;81;20942;-77
2021/06/10 03:11:41;;;;;;;12.93;9.75;;;;;;;10.76;81.73;98329.36;1751852;80;21503;-77
2021/06/10 03:14:10;;;;;;;11.83;8.63;;;;;;;10.78;81.08;98332.63;1751429;82;20935;-77
2021/06/10 03:16:37;;;;;;;13.62;9.18;;;;;;;10.75;81.89;98333.16;1751707;82;21113;-76
2021/06/10 03:19:03;;;;;;;14.40;9.25;;;;;;;10.73;81.11;98337.50;1751341;82;20938;-76
2021/06/10 03:21:30;;;;;;;13.83;9.23;;;;;;;10.73;82.10;98328.56;1751570;81;21088;-76
2021/06/10 03:23:56;;;;;;;13.50;8.78;;;;;;;10.74;82.02;98335.60;1751399;82;22003;-76
2021/06/10 03:26:22;;;;;;;11.83;9.23;;;;;;;10.87;80.80;98334.25;1751148;82;21096;-76
2021/06/10 03:28:49;;;;;;;12.15;8.23;;;;;;;10.87;80.80;98334.25;1751427;82;20998;-76
2021/06/10 03:31:15;;;;;;;16.27;10.70;;;;;;;11.09;81.03;98343.41;1726484;82;21457;-76
2021/06/10 03:33:41;;;;;;;11.53;8.78;;;;;;;11.09;81.03;98343.41;1751516;82;20962;-76
2021/06/10 03:36:08;;;;;;;12.00;8.00;;;;;;;11.16;81.26;98343.39;1751589;82;21097;-76
2021/06/10 03:38:34;;;;;;;15.08;8.35;;;;;;;11.19;80.80;98339.30;1750729;82;21049;-76
2021/06/10 03:41:00;;;;;;;10.30;7.10;;;;;;;11.16;81.35;98342.03;1751713;82;20945;-76
2021/06/10 03:43:26;;;;;;;10.80;8.65;;;;;;;11.21;79.96;98339.31;1726082;82;20843;-76
2021/06/10 03:45:52;;;;;;;12.25;8.78;;;;;;;11.09;79.94;98337.44;1751601;82;21085;-76
2021/06/10 03:48:18;;;;;;;14.28;8.08;;;;;;;11.05;80.16;98350.48;1751666;80;21317;-76
2021/06/10 03:50:44;;;;;;;12.13;8.83;;;;;;;11.00;81.25;98346.67;1751726;81;20882;-76
2021/06/10 03:53:10;;;;;;;10.70;8.73;;;;;;;11.00;80.82;98339.89;1751490;82;20946;-76
2021/06/10 03:55:36;;;;;;;12.78;8.05;;;;;;;11.08;80.66;98338.52;1751703;81;21575;-76
2021/06/10 03:58:02;;;;;;;10.90;8.93;;;;;;;11.18;80.71;98340.39;1751594;82;21115;-76
2021/06/10 04:00:28;;;;;;;10.98;8.33;;;;;;;11.32;80.11;98343.35;1726167;82;21096;-76
2021/06/10 04:02:59;;;;;;;10.23;8.25;;;;;;;11.41;79.77;98341.69;1751592;82;21112;-76
2021/06/10 04:05:27;;;;;;;10.23;8.23;;;;;;;11.47;80.01;98341.95;1750914;82;20986;-76
2021/06/10 04:07:55;;;;;;;13.88;8.83;;;;;;;11.50;80.02;98342.73;1753714;81;21151;-77
2021/06/10 04:10:21;;;;;;;14.07;9.17;;;;;;;11.50;80.14;98343.55;1763440;81;20998;-77
2021/06/10 04:12:48;;;;;;;14.50;10.58;;;;;;;11.43;80.37;98344.92;1763444;81;21126;-77
2021/06/10 04:15:15;;;;;;;20.15;9.83;;;;;;;11.43;80.04;98347.64;1763406;81;21099;-77
2021/06/10 04:17:42;;;;;;;12.13;8.45;;;;;;;11.42;79.72;98337.34;1763407;81;21443;-77
2021/06/10 04:20:09;;;;;;;11.88;8.75;;;;;;;11.48;79.54;98347.09;1763070;81;21052;-77
2021/06/10 04:22:35;;;;;;;11.93;9.50;;;;;;;11.52;79.91;98341.36;1763340;81;21458;-77
2021/06/10 04:25:01;;;;;;;12.13;9.00;;;;;;;11.65;80.57;98344.58;1763257;81;21959;-77
2021/06/10 04:27:27;;;;;;;12.35;8.80;;;;;;;11.83;80.15;98341.26;1763740;81;21064;-77
2021/06/10 04:29:53;;;;;;;13.48;7.85;;;;;;;12.03;79.23;98349.83;1763099;81;20910;-77
2021/06/10 04:32:19;;;;;;;12.25;7.97;;;;;;;12.17;79.23;98345.40;1763643;81;20922;-77
2021/06/10 04:34:45;;;;;;;11.78;8.55;;;;;;;12.32;78.73;98349.38;1763136;81;21530;-77
2021/06/10 04:37:11;;;;;;;13.08;9.30;;;;;;;12.51;78.80;98351.41;1763387;81;21060;-77
2021/06/10 04:39:37;;;;;;;21.30;10.98;;;;;;;12.63;78.94;98345.05;1763157;81;21080;-77
2021/06/10 04:42:04;;;;;;;16.57;10.45;;;;;;;12.81;78.90;98351.68;1758558;81;21108;-77
2021/06/10 04:44:30;;;;;;;13.05;9.80;;;;;;;12.96;78.42;98345.55;1763196;81;21025;-77
2021/06/10 04:46:56;;;;;;;17.82;9.13;;;;;;;13.16;77.77;98345.08;1763348;81;20862;-77
2021/06/10 04:49:22;;;;;;;13.65;9.50;;;;;;;13.33;77.37;98341.41;1763355;81;21303;-77
2021/06/10 04:51:48;;;;;;;11.75;8.80;;;;;;;13.58;76.61;98340.27;1763444;81;21005;-77
2021/06/10 04:54:14;;;;;;;13.15;9.03;;;;;;;13.79;76.26;98336.75;1733201;81;21351;-77
2021/06/10 04:56:40;;;;;;;16.05;9.83;;;;;;;13.78;76.10;98337.86;1763399;81;20890;-77
2021/06/10 04:59:06;;;;;;;12.88;9.48;;;;;;;14.00;76.06;98344.89;1763176;81;21556;-77
2021/06/10 05:01:32;;;;;;;12.93;8.98;;;;;;;14.24;75.51;98338.56;1743788;81;21424;-77
2021/06/10 05:03:58;;;;;;;11.25;9.33;;;;;;;14.33;74.69;98336.23;1763411;81;21466;-77
2021/06/10 05:06:24;;;;;;;18.57;9.20;;;;;;;14.32;74.61;98338.70;1763351;81;21064;-77
2021/06/10 05:08:50;;;;;;;11.97;9.25;;;;;;;14.51;74.30;98334.61;1758080;81;20994;-77
2021/06/10 05:11:16;;;;;;;16.17;9.33;;;;;;;14.69;74.24;98326.14;1751653;81;20966;-77
2021/06/10 05:13:42;;;;;;;10.43;8.78;;;;;;;14.85;73.58;98322.03;1751634;82;21127;-77
2021/06/10 05:16:08;;;;;;;10.28;7.75;;;;;;;14.97;73.69;98333.05;1751020;80;20945;-77
2021/06/10 05:18:34;;;;;;;16.00;9.43;;;;;;;15.16;73.24;98332.41;1751497;82;20962;-77
2021/06/10 05:21:00;;;;;;;18.45;8.48;;;;;;;15.39;73.23;98335.52;1751736;80;21077;-77
2021/06/10 05:23:26;;;;;;;9.30;7.97;;;;;;;15.53;73.11;98333.57;1751542;82;21343;-77
2021/06/10 05:25:52;;;;;;;10.70;7.92;;;;;;;15.58;72.52;98331.86;1751632;82;22006;-77
2021/06/10 05:28:18;;;;;;;9.38;8.10;;;;;;;15.62;71.96;98332.33;1751377;82;20957;-77
2021/06/10 05:30:44;;;;;;;11.88;8.75;;;;;;;15.71;71.84;98331.86;1751646;82;20914;-77
2021/06/10 05:33:10;;;;;;;18.50;8.85;;;;;;;15.98;71.85;98330.20;1751454;82;21402;-77
2021/06/10 05:35:36;;;;;;;11.60;8.03;;;;;;;16.24;70.50;98329.90;1751371;82;21687;-77
2021/06/10 05:38:02;;;;;;;9.93;8.60;;;;;;;16.34;70.23;98326.92;1751573;80;21148;-77
2021/06/10 05:40:28;;;;;;;12.00;8.13;;;;;;;16.47;69.62;98328.53;1751314;80;21545;-77
2021/06/10 05:42:54;;;;;;;16.23;9.65;;;;;;;16.62;68.80;98326.23;1751700;82;21076;-77
2021/06/10 05:45:20;;;;;;;13.72;10.65;;;;;;;16.67;68.09;98329.97;1751460;80;20985;-77
2021/06/10 05:47:46;;;;;;;14.90;11.05;;;;;;;16.66;68.48;98325.03;1751771;80;21061;-77
2021/06/10 05:50:13;;;;;;;15.40;11.20;;;;;;;16.83;68.54;98316.16;1751470;82;20910;-77
2021/06/10 05:52:39;;;;;;;21.80;14.50;;;;;;;17.09;68.86;98316.30;1751740;81;21069;-77
2021/06/10 05:55:07;;;;;;;23.20;15.72;;;;;;;17.38;66.98;98313.05;1725854;82;20998;-77
2021/06/10 05:57:33;;;;;;;16.27;12.87;;;;;;;17.43;67.10;98316.47;1752015;82;21482;-77
2021/06/10 05:59:59;;;;;;;11.33;9.58;;;;;;;17.66;66.91;98317.16;1726094;82;20990;-76
2021/06/10 06:02:26;;;;;;;16.35;9.43;;;;;;;17.90;66.14;98312.64;1751647;82;21300;-77
2021/06/10 06:04:51;;;;;;;8.98;7.62;;;;;;;18.09;63.92;98311.53;1751533;80;20994;-77
2021/06/10 06:07:18;;;;;;;13.85;8.50;;;;;;;17.99;63.87;98309.34;1751933;82;20981;-77
2021/06/10 06:09:44;;;;;;;11.53;9.98;;;;;;;18.08;63.01;98312.66;1751488;81;20982;-77
2021/06/10 06:12:12;;;;;;;12.40;8.78;;;;;;;18.14;63.29;98307.27;1751285;82;21021;-77
2021/06/10 06:14:39;;;;;;;11.05;9.35;;;;;;;18.31;64.24;98312.76;1751638;82;21036;-77
2021/06/10 06:17:06;;;;;;;11.33;8.98;;;;;;;18.47;62.99;98308.40;1725963;82;20977;-76
2021/06/10 06:19:35;;;;;;;14.50;9.83;;;;;;;18.67;62.86;98310.25;1725923;82;21014;-76
2021/06/10 06:22:01;;;;;;;14.83;11.57;;;;;;;18.67;59.87;98303.39;1752230;81;21402;-76
2021/06/10 06:24:29;;;;;;;15.43;11.48;;;;;;;18.77;60.86;98312.08;1726038;82;21069;-76
2021/06/10 06:26:55;;;;;;;13.72;11.68;;;;;;;19.05;61.14;98303.44;1751736;81;21146;-76
2021/06/10 06:29:21;;;;;;;12.80;10.78;;;;;;;19.18;59.53;98298.89;1751336;82;20957;-76
2021/06/10 06:31:47;;;;;;;16.67;11.03;;;;;;;19.32;60.16;98302.23;1751659;81;20992;-76
2021/06/10 06:34:13;;;;;;;16.07;10.65;;;;;;;19.48;59.66;98303.27;1751697;82;20986;-76
2021/06/10 06:36:39;;;;;;;15.18;12.53;;;;;;;19.61;59.45;98305.02;1751797;81;21037;-76
2021/06/10 06:39:06;;;;;;;15.20;11.30;;;;;;;19.67;58.30;98298.77;1751888;82;21657;-76
2021/06/10 06:41:32;;;;;;;16.77;9.70;;;;;;;19.75;58.07;98300.66;1726124;82;21097;-76
2021/06/10 06:43:58;;;;;;;22.73;10.72;;;;;;;19.93;58.30;98304.91;1751273;82;21329;-76
2021/06/10 06:46:24;;;;;;;16.05;9.63;;;;;;;20.14;57.39;98302.16;1751829;82;20855;-76
2021/06/10 06:48:50;;;;;;;10.85;7.75;;;;;;;20.29;57.68;98299.38;1725958;82;21411;-76
2021/06/10 06:51:16;;;;;;;10.70;7.83;;;;;;;20.46;56.49;98302.00;1751688;82;21841;-76
2021/06/10 06:53:42;;;;;;;11.57;8.05;;;;;;;20.33;56.85;98303.05;1751559;82;20874;-76
2021/06/10 06:56:08;;;;;;;13.78;8.28;;;;;;;20.41;56.77;98313.17;1751781;80;20973;-76
2021/06/10 06:58:34;;;;;;;11.57;6.80;;;;;;;20.65;56.76;98307.58;1751568;82;20981;-76
2021/06/10 07:01:00;;;;;;;10.82;7.47;;;;;;;20.92;56.48;98312.47;1751301;81;20994;-76
2021/06/10 07:03:26;;;;;;;20.30;6.37;;;;;;;21.10;55.28;98308.37;1751484;81;21145;-72
2021/06/10 07:05:55;;;;;;;12.28;8.28;;;;;;;21.34;53.39;98312.34;1751316;80;20962;-73
2021/06/10 07:08:21;;;;;;;11.68;6.87;;;;;;;21.37;52.95;98311.11;1732075;80;21029;-73
2021/06/10 07:10:53;;;;;;;8.78;5.33;;;;;;;21.44;51.53;98313.27;1721058;83;20985;-73
2021/06/10 07:13:15;;;;;;;8.87;6.07;;;;;;;21.59;51.31;98317.30;1720964;83;20994;-76
2021/06/10 07:15:41;;;;;;;8.20;4.67;;;;;;;21.76;50.89;98317.64;1721604;83;22028;-76
2021/06/10 07:18:07;;;;;;;9.85;5.55;;;;;;;22.05;50.89;98316.55;1721563;83;20946;-76
2021/06/10 07:20:33;;;;;;;10.68;4.80;;;;;;;22.50;50.55;98319.13;1721673;82;21058;-76
2021/06/10 07:23:00;;;;;;;9.23;4.05;;;;;;;22.56;47.23;98311.38;1721844;83;21010;-76
2021/06/10 07:25:26;;;;;;;6.17;3.90;;;;;;;22.44;44.54;98315.00;1721525;82;20951;-76
2021/06/10 07:27:52;;;;;;;5.37;3.60;;;;;;;22.27;42.92;98313.91;1721958;83;21190;-76
2021/06/10 07:30:21;;;;;;;12.50;4.30;;;;;;;22.52;46.73;98318.19;1721501;83;20949;-76
2021/06/10 07:32:46;;;;;;;11.73;4.28;;;;;;;22.60;44.21;98316.44;1721891;83;21038;-77
2021/06/10 07:35:14;;;;;;;8.58;4.10;;;;;;;22.88;46.13;98315.86;1721872;83;20918;-77
2021/06/10 07:37:41;;;;;;;6.23;3.93;;;;;;;23.38;45.32;98308.87;1721952;83;21061;-77
2021/06/10 07:40:08;;;;;;;4.50;3.45;;;;;;;23.69;42.02;98316.97;1721502;83;21036;-77
2021/06/10 07:42:34;;;;;;;11.08;3.80;;;;;;;24.24;43.54;98307.53;1722137;82;21021;-77
2021/06/10 07:45:00;;;;;;;9.58;4.30;;;;;;;24.81;43.40;98312.89;1721646;83;21032;-77
2021/06/10 07:47:26;;;;;;;7.10;3.72;;;;;;;25.17;41.83;98310.22;1721803;83;21493;-77
2021/06/10 07:49:52;;;;;;;8.35;4.67;;;;;;;25.22;37.96;98307.15;1721497;82;20938;-77
2021/06/10 07:52:18;;;;;;;4.90;3.65;;;;;;;25.60;39.43;98315.89;1721827;83;21328;-77
2021/06/10 07:54:44;;;;;;;9.13;4.25;;;;;;;26.16;38.43;98313.00;1721469;83;20961;-77
2021/06/10 07:57:10;;;;;;;19.57;4.55;;;;;;;26.07;36.77;98313.28;1721696;82;21659;-77
2021/06/10 07:59:36;;;;;;;6.75;3.80;;;;;;;26.51;37.36;98323.81;1696703;83;20950;-77
2021/06/10 08:02:03;;;;;;;6.30;3.50;;;;;;;26.06;35.38;98319.18;1721882;83;20894;-77
2021/06/10 08:04:30;;;;;;;5.75;3.75;;;;;;;26.76;37.07;98315.77;1721482;82;21520;-77
2021/06/10 08:06:56;;;;;;;7.55;3.55;;;;;;;26.91;36.48;98316.12;1697143;83;21490;-77
2021/06/10 08:09:22;;;;;;;9.05;3.37;;;;;;;27.24;36.29;98315.30;1721316;82;21599;-77
2021/06/10 08:11:48;;;;;;;8.58;4.22;;;;;;;27.14;34.92;98317.98;1721709;83;20977;-77
2021/06/10 08:14:14;;;;;;;8.68;3.70;;;;;;;27.69;35.87;98302.21;1721795;83;21290;-77
2021/06/10 08:16:40;;;;;;;6.92;3.58;;;;;;;27.58;34.66;98311.02;1721864;83;21130;-77
2021/06/10 08:19:06;;;;;;;6.17;3.72;;;;;;;27.46;33.42;98314.11;1721505;83;21359;-77
2021/06/10 08:21:32;;;;;;;3.80;2.80;;;;;;;26.99;30.67;98315.02;1721397;83;20985;-77
2021/06/10 08:23:58;;;;;;;5.53;3.25;;;;;;;26.99;30.67;98315.02;1721594;83;21021;-77
2021/06/10 08:26:25;;;;;;;7.40;3.02;;;;;;;27.45;32.75;98313.31;1696843;83;20886;-77
2021/06/10 08:28:51;;;;;;;9.10;3.27;;;;;;;28.47;32.72;98306.08;1721162;83;21295;-77
2021/06/10 08:31:17;;;;;;;5.78;3.10;;;;;;;28.88;32.11;98306.63;1721429;83;21091;-77
2021/06/10 08:33:43;;;;;;;5.90;3.35;;;;;;;28.33;29.53;98317.14;1721621;83;20935;-77
2021/06/10 08:36:09;;;;;;;8.88;4.50;;;;;;;28.04;31.54;98314.18;1721391;82;20886;-77
2021/06/10 08:38:36;;;;;;;7.60;3.42;;;;;;;27.40;32.19;98317.83;1721606;83;21034;-77
2021/06/10 08:41:02;;;;;;;7.47;3.20;;;;;;;27.37;32.07;98319.20;1720869;83;20959;-77
2021/06/10 08:43:30;;;;;;;6.78;2.72;;;;;;;28.25;31.35;98319.66;1721573;83;21029;-77
2021/06/10 08:46:03;;;;;;;6.70;4.28;;;;;;;28.82;31.24;98309.58;1721631;83;20931;-77
2021/06/10 08:48:37;;;;;;;4.08;3.25;;;;;;;29.26;29.45;98312.69;1720398;83;21001;-77
2021/06/10 08:51:05;;;;;;;3.83;2.92;;;;;;;29.23;29.98;98314.89;1721468;82;21009;-77
2021/06/10 08:53:31;;;;;;;5.30;2.95;;;;;;;30.44;29.26;98314.81;1720961;83;21410;-78
2021/06/10 08:55:58;;;;;;;13.45;3.72;;;;;;;30.78;28.27;98317.09;1721363;82;21101;-78
2021/06/10 08:58:24;;;;;;;7.45;3.85;;;;;;;30.98;27.08;98320.17;1721718;83;20942;-78
2021/06/10 09:00:50;;;;;;;3.87;2.80;;;;;;;29.22;28.74;98320.24;1721466;83;21002;-78
2021/06/10 09:03:29;;;;;;;3.92;3.05;;;;;;;28.32;29.39;98325.30;1721615;83;21411;-78
2021/06/10 09:06:06;;;;;;;6.20;2.47;;;;;;;28.99;28.15;98320.62;1720906;83;21067;-78
2021/06/10 09:08:38;;;;;;;3.60;2.17;;;;;;;28.92;27.83;98322.78;1720586;83;21374;-79
2021/06/10 09:11:21;;;;;;;3.67;2.62;;;;;;;27.47;29.62;98324.05;1721409;83;20983;-79
2021/06/10 09:13:58;;;;;;;4.92;2.98;;;;;;;29.02;28.43;98312.05;1721800;83;21037;-77
2021/06/10 09:16:32;;;;;;;8.98;2.90;;;;;;;28.75;28.69;98316.53;1721498;83;20954;-77
2021/06/10 09:19:16;;;;;;;6.25;2.95;;;;;;;28.76;28.81;98312.55;1721493;83;21670;-78
2021/06/10 09:21:47;;;;;;;5.40;3.33;;;;;;;27.80;29.40;98328.13;1718948;83;21774;-76
2021/06/10 09:24:33;;;;;;;5.50;3.12;;;;;;;26.19;31.43;98333.66;1721653;83;20962;-76
2021/06/10 09:27:08;;;;;;;8.23;3.22;;;;;;;27.18;30.90;98334.13;1722112;83;21031;-77
2021/06/10 09:29:52;;;;;;;5.72;3.50;;;;;;;29.49;29.16;98322.91;1721473;83;21533;-77
2021/06/10 09:32:27;;;;;;;11.93;3.60;;;;;;;30.90;27.16;98326.41;1721656;83;21221;-77
2021/06/10 09:34:58;;;;;;;6.25;2.95;;;;;;;32.13;25.03;98322.30;1697279;83;20930;-78
2021/06/10 09:37:39;;;;;;;6.55;3.55;;;;;;;32.22;24.84;98320.62;1721856;83;21049;-77
2021/06/10 09:40:15;;;;;;;7.80;3.47;;;;;;;31.76;24.49;98317.43;1721777;83;21399;-77
2021/06/10 09:42:42;;;;;;;6.30;3.35;;;;;;;30.17;26.56;98320.09;1720689;83;21029;-78
2021/06/10 09:45:11;;;;;;;6.65;3.87;;;;;;;30.17;26.56;98320.09;1697244;83;21903;-78
2021/06/10 09:47:41;;;;;;;12.15;4.55;;;;;;;31.58;25.62;98323.98;1696796;83;21474;-78
2021/06/10 09:50:45;;;;;;;7.55;3.58;;;;;;;31.58;25.62;98323.98;1697453;83;20994;-78
2021/06/10 09:53:16;;;;;;;6.97;3.22;;;;;;;32.19;24.05;98327.03;1720767;83;21010;-78
2021/06/10 09:55:56;;;;;;;9.65;3.12;;;;;;;31.97;24.21;98321.48;1721642;83;21493;-78
2021/06/10 09:58:32;;;;;;;5.72;2.92;;;;;;;33.68;23.90;98313.67;1702261;83;21215;-78
2021/06/10 10:01:15;;;;;;;7.05;3.27;;;;;;;33.90;23.37;98318.33;1721820;83;20993;-78
2021/06/10 10:03:43;;;;;;;8.33;3.27;;;;;;;33.18;23.03;98314.43;1719702;83;21026;-77
2021/06/10 10:06:25;;;;;;;5.95;2.87;;;;;;;33.85;22.71;98314.59;1721433;83;21483;-78
2021/06/10 10:09:00;;;;;;;4.50;3.27;;;;;;;34.30;22.22;98315.59;1721478;83;21049;-78
2021/06/10 10:11:27;;;;;;;9.33;3.30;;;;;;;34.39;21.65;98305.38;1730933;82;21185;-77
2021/06/10 10:13:55;;;;;;;9.20;3.73;;;;;;;35.05;21.71;98297.98;1733206;82;20901;-77
2021/06/10 10:16:29;;;;;;;7.70;3.77;;;;;;;32.96;23.27;98311.13;1732791;82;20984;-77
2021/06/10 10:18:55;;;;;;;6.60;3.10;;;;;;;33.57;22.90;98304.61;1733033;82;21063;-78
2021/06/10 10:21:27;;;;;;;4.17;3.00;;;;;;;31.40;23.85;98312.92;1733296;82;21000;-77
2021/06/10 10:24:00;;;;;;;8.35;3.12;;;;;;;32.95;23.44;98301.73;1733117;82;21023;-77
2021/06/10 10:26:27;;;;;;;6.35;3.12;;;;;;;32.62;23.18;98297.73;1733319;82;20973;-77
2021/06/10 10:28:53;;;;;;;4.53;3.02;;;;;;;34.13;21.81;98297.22;1733237;82;26323;-77
2021/06/10 10:31:19;;;;;;;8.13;4.03;;;;;;;33.65;21.70;98291.42;1733139;82;20876;-77
2021/06/10 10:33:47;;;;;;;9.60;3.37;;;;;;;34.15;21.35;98293.36;1733067;82;20920;-77
2021/06/10 10:36:30;;;;;;;32.03;5.35;;;;;;;35.20;21.19;98285.75;1733046;82;21783;-77
2021/06/10 10:38:59;;;;;;;5.95;2.90;;;;;;;36.37;20.54;98286.21;1728672;82;20972;-76
2021/06/10 10:41:25;;;;;;;7.20;3.15;;;;;;;36.23;19.50;98285.16;1733056;82;20949;-78
2021/06/10 10:44:22;;;;;;;12.13;3.58;;;;;;;34.95;19.72;98287.14;1728271;82;20975;-78
2021/06/10 10:46:41;;;;;;;4.33;2.70;;;;;;;33.25;21.90;98284.84;1728473;82;21020;-79
2021/06/10 10:49:22;;;;;;;3.90;2.75;;;;;;;33.19;22.13;98289.34;1733157;82;22074;-77
2021/06/10 10:51:48;;;;;;;14.20;4.08;;;;;;;32.75;22.47;98279.14;1722506;82;20984;-77
2021/06/10 10:54:33;;;;;;;5.83;3.37;;;;;;;34.67;21.24;98273.03;1733074;82;21032;-77
2021/06/10 10:56:59;;;;;;;11.43;3.70;;;;;;;32.97;22.00;98285.26;1733095;82;21013;-77
2021/06/10 10:59:25;;;;;;;8.75;3.67;;;;;;;34.22;20.86;98272.14;1733201;82;20979;-77
2021/06/10 11:02:09;;;;;;;11.55;4.30;;;;;;;34.23;21.65;98274.33;1728273;82;22947;-78
2021/06/10 11:05:00;;;;;;;5.83;3.40;;;;;;;35.48;20.89;98269.61;1703773;82;21475;-78
2021/06/10 11:07:41;;;;;;;6.62;4.00;;;;;;;33.09;22.96;98266.45;1732912;82;21036;-77
2021/06/10 11:10:21;;;;;;;9.03;3.90;;;;;;;34.05;21.70;98262.03;1733524;82;21173;-78
2021/06/10 11:12:53;;;;;;;12.25;4.22;;;;;;;35.24;20.87;98260.51;1731587;82;20972;-77
2021/06/10 11:15:30;;;;;;;23.75;3.55;;;;;;;35.50;20.01;98258.69;1733173;82;21149;-78
2021/06/10 11:17:59;;;;;;;8.68;3.17;;;;;;;35.87;20.33;98245.23;1733096;82;21060;-77
2021/06/10 11:20:42;;;;;;;9.43;3.75;;;;;;;36.23;19.51;98242.23;1733124;82;21032;-78
2021/06/10 11:23:15;;;;;;;6.85;2.62;;;;;;;34.79;20.15;98244.86;1733088;82;21409;-78
2021/06/10 11:25:50;;;;;;;55.05;6.78;;;;;;;34.83;19.45;98246.17;1704026;82;20927;-78
2021/06/10 11:28:26;;;;;;;14.90;3.00;;;;;;;36.50;19.01;98236.27;1733163;82;21179;-78
2021/06/10 11:30:56;;;;;;;24.57;4.55;;;;;;;36.64;16.99;98237.85;1733371;82;20917;-78
2021/06/10 11:33:23;;;;;;;9.78;2.67;;;;;;;36.58;17.26;98245.31;1728829;82;20981;-77